Tyler — WDH2928 — position and weather

sailwx.info

Track history (hours):
 
Tides and Currents Weather Stations Pressure Air Temp Water Temp Dewpoint Dewpoint Depression Visibility Wind Speed Wind Dir Waves Ship Positions

Tyler

Owner: F/V Tyler Inc, Gloucester, MA. More information available from US FCC via Universal Licensing System and Coast Guard Vessel Documentation Center.

Last reported at 2017-Dec-07 09:00 UTC. Time now 2017-Dec-12 12:28 UTC.
Position N 42°30' W 070°13'.

Length 20 m; draft 14 m.

Type: Ship. MMSI: 367602610.

Date/timePositionNaut miles runAvg speedWind from/ knotsBaromVisibWave heightAir tempDewpointWater temp
2017-Dec-07 09:00N 42°30' W 070°13'4 9.0
2017-Dec-07 08:30N 42°31' W 070°19'4 8.8
2017-Dec-07 08:00N 42°32' W 070°25'4 8.9
2017-Dec-07 07:30N 42°33' W 070°31'4 8.8
2017-Dec-07 07:00N 42°34' W 070°37'3 6.7
2017-Dec-07 06:30N 42°36' W 070°40'1 1.9
2017-Dec-07 06:00N 42°37' W 070°40'0 0.0
2017-Dec-07 05:30N 42°37' W 070°40'3 5.9
2017-Dec-07 05:00N 42°34' W 070°40'4 8.7
2017-Dec-07 04:30N 42°32' W 070°35'4 9.0
2017-Dec-07 04:00N 42°32' W 070°29'5 8.8
2017-Dec-07 03:29N 42°31' W 070°23'7 4.9
2017-Dec-07 02:00N 42°31' W 070°13'4 8.3
2017-Dec-07 01:30N 42°31' W 070°18'4 7.6
2017-Dec-07 01:00N 42°32' W 070°23'4 7.7
2017-Dec-07 00:30N 42°33' W 070°28'4 7.9
2017-Dec-07 00:00N 42°33' W 070°34'4 8.1
2017-Dec-06 23:30N 42°34' W 070°39'2 4.5
2017-Dec-06 23:00N 42°36' W 070°40'1 2.7
2017-Dec-06 22:30N 42°37' W 070°39'0 0.0
2017-Dec-06 22:00N 42°37' W 070°39'0 0.0
2017-Dec-06 21:30N 42°37' W 070°39'0 0.0
2017-Dec-06 21:00N 42°37' W 070°39'  
2017-Dec-04 10:30N 42°37' W 070°39'0 0.0
2017-Dec-04 10:00N 42°37' W 070°39'0 0.0
2017-Dec-04 09:30N 42°37' W 070°39'0 0.0
2017-Dec-04 09:00N 42°37' W 070°39'0 0.0
2017-Dec-04 08:30N 42°37' W 070°39'0 0.0
2017-Dec-04 08:00N 42°37' W 070°39'0 0.0
2017-Dec-04 07:30N 42°37' W 070°39'0 0.0
2017-Dec-04 07:00N 42°37' W 070°39'0 0.0
2017-Dec-04 06:30N 42°37' W 070°39'0 0.0
2017-Dec-04 06:00N 42°37' W 070°39'0 0.0
2017-Dec-04 05:30N 42°37' W 070°39'0 0.0
2017-Dec-04 05:00N 42°37' W 070°39'0 0.0
2017-Dec-04 04:30N 42°37' W 070°39'0 0.0
2017-Dec-04 04:00N 42°37' W 070°39'0 0.0
2017-Dec-04 03:30N 42°37' W 070°39'0 0.0
2017-Dec-04 03:00N 42°37' W 070°39'0 0.0
2017-Dec-04 02:30N 42°37' W 070°39'0 0.0
2017-Dec-04 02:00N 42°37' W 070°39'0 0.0
2017-Dec-04 01:30N 42°37' W 070°39'0 0.0
2017-Dec-04 01:00N 42°37' W 070°39'0 0.0
2017-Dec-04 00:30N 42°37' W 070°39'0 0.0
2017-Dec-04 00:00N 42°37' W 070°39'0 0.0
2017-Dec-03 23:30N 42°37' W 070°39'0 0.0
2017-Dec-03 23:00N 42°37' W 070°39'0 0.0
2017-Dec-03 22:30N 42°37' W 070°39'0 0.0
2017-Dec-03 22:00N 42°37' W 070°39'0 0.0
2017-Dec-03 21:30N 42°37' W 070°39'0 0.0
2017-Dec-03 21:00N 42°37' W 070°39'0 0.0
2017-Dec-03 20:30N 42°37' W 070°39'0 0.0
2017-Dec-03 20:00N 42°37' W 070°39'0 0.0
2017-Dec-03 19:30N 42°37' W 070°39'0 0.0
2017-Dec-03 19:00N 42°37' W 070°39'0 0.0
2017-Dec-03 18:30N 42°37' W 070°39'0 0.0
2017-Dec-03 18:00N 42°37' W 070°39'0 0.0
2017-Dec-03 17:30N 42°37' W 070°39'0 0.0
2017-Dec-03 17:00N 42°37' W 070°39'0 0.0
2017-Dec-03 16:30N 42°37' W 070°39'0 0.0
2017-Dec-03 16:00N 42°37' W 070°39'0 0.0
2017-Dec-03 15:30N 42°37' W 070°39'0 0.0
2017-Dec-03 15:00N 42°37' W 070°39'0 0.0
2017-Dec-03 14:30N 42°37' W 070°39'0 0.0
2017-Dec-03 14:00N 42°37' W 070°39'0 0.0
2017-Dec-03 13:30N 42°37' W 070°39'0 0.0
2017-Dec-03 13:00N 42°37' W 070°39'0 0.0
2017-Dec-03 12:31N 42°37' W 070°39'0 0.0
2017-Dec-03 12:00N 42°37' W 070°39'0 0.0
2017-Dec-03 11:30N 42°37' W 070°39'0 0.0
2017-Dec-03 11:00N 42°37' W 070°39'0 0.0
2017-Dec-03 10:30N 42°37' W 070°39'0 0.0
2017-Dec-03 10:00N 42°37' W 070°39'0 0.0
2017-Dec-03 09:30N 42°37' W 070°39'0 0.0
2017-Dec-03 09:00N 42°37' W 070°39'0 0.0
2017-Dec-03 08:30N 42°37' W 070°39'0 0.0
2017-Dec-03 08:00N 42°37' W 070°39'0 0.0
2017-Dec-03 07:30N 42°37' W 070°39'0 0.0
2017-Dec-03 07:00N 42°37' W 070°39'0 0.0
2017-Dec-03 06:30N 42°37' W 070°39'0 0.0
2017-Dec-03 06:00N 42°37' W 070°39'0 0.0
2017-Dec-03 05:30N 42°37' W 070°39'0 0.0
2017-Dec-03 05:00N 42°37' W 070°39'0 0.0
2017-Dec-03 04:30N 42°37' W 070°39'0 0.0
2017-Dec-03 04:00N 42°37' W 070°39'0 0.0
2017-Dec-03 03:30N 42°37' W 070°39'0 0.0
2017-Dec-03 03:00N 42°37' W 070°39'0 0.0
2017-Dec-03 02:30N 42°37' W 070°39'0 0.0
2017-Dec-03 02:00N 42°37' W 070°39'0 0.0
2017-Dec-03 01:30N 42°37' W 070°39'0 0.0
2017-Dec-03 01:00N 42°37' W 070°39'0 0.0
2017-Dec-03 00:30N 42°37' W 070°39'0 0.0
2017-Dec-03 00:00N 42°37' W 070°39'0 0.0
2017-Dec-02 23:30N 42°37' W 070°39'0 0.0
2017-Dec-02 23:00N 42°37' W 070°39'0 0.0
2017-Dec-02 22:31N 42°37' W 070°39'0 0.0
2017-Dec-02 22:00N 42°37' W 070°39'0 0.0
2017-Dec-02 21:30N 42°37' W 070°39'0 0.0
2017-Dec-02 21:00N 42°37' W 070°39'0 0.0
2017-Dec-02 20:30N 42°37' W 070°39'0 0.0
2017-Dec-02 20:00N 42°37' W 070°39'0 0.0
2017-Dec-02 19:30N 42°37' W 070°39'0 0.0
2017-Dec-02 19:00N 42°37' W 070°39'0 0.0
2017-Dec-02 18:30N 42°37' W 070°39'0 0.0
2017-Dec-02 18:00N 42°37' W 070°39'0 0.0
2017-Dec-02 17:30N 42°37' W 070°39'0 0.0
2017-Dec-02 17:00N 42°37' W 070°39'0 0.0
2017-Dec-02 16:30N 42°37' W 070°39'0 0.0
2017-Dec-02 16:00N 42°37' W 070°39'0 0.0
2017-Dec-02 15:30N 42°37' W 070°39'0 0.0
2017-Dec-02 15:00N 42°37' W 070°39'0 0.0
2017-Dec-02 14:31N 42°37' W 070°39'0 0.0
2017-Dec-02 14:00N 42°37' W 070°39'0 0.0
2017-Dec-02 13:30N 42°37' W 070°39'0 0.0
2017-Dec-02 13:00N 42°37' W 070°39'0 0.0
2017-Dec-02 12:30N 42°37' W 070°39'0 0.0
2017-Dec-02 12:00N 42°37' W 070°39'0 0.0
2017-Dec-02 11:30N 42°37' W 070°39'0 0.0
2017-Dec-02 11:00N 42°37' W 070°39'0 0.0
2017-Dec-02 10:30N 42°37' W 070°39'0 0.0
2017-Dec-02 10:00N 42°37' W 070°39'0 0.0
2017-Dec-02 09:30N 42°37' W 070°39'0 0.0
2017-Dec-02 09:00N 42°37' W 070°39'0 0.0
2017-Dec-02 08:30N 42°37' W 070°39'0 0.0
2017-Dec-02 08:00N 42°37' W 070°39'0 0.0
2017-Dec-02 07:30N 42°37' W 070°39'0 0.0
2017-Dec-02 07:00N 42°37' W 070°39'0 0.0
2017-Dec-02 06:30N 42°37' W 070°39'0 0.0
2017-Dec-02 06:00N 42°37' W 070°39'0 0.0
2017-Dec-02 05:30N 42°37' W 070°39'0 0.0
2017-Dec-02 05:00N 42°37' W 070°39'0 0.0
2017-Dec-02 04:30N 42°37' W 070°39'0 0.0
2017-Dec-02 04:00N 42°37' W 070°39'0 0.0
2017-Dec-02 03:30N 42°37' W 070°39'0 0.0
2017-Dec-02 03:00N 42°37' W 070°39'0 0.0
2017-Dec-02 02:30N 42°37' W 070°39'0 0.0
2017-Dec-02 02:00N 42°37' W 070°39'0 0.0
2017-Dec-02 01:30N 42°37' W 070°39'0 0.0
2017-Dec-02 01:00N 42°37' W 070°39'0 0.0
2017-Dec-02 00:30N 42°37' W 070°39'0 0.0
2017-Dec-02 00:00N 42°37' W 070°39'0 0.0
2017-Dec-01 23:30N 42°37' W 070°39'0 0.0
2017-Dec-01 23:00N 42°37' W 070°39'0 0.0
2017-Dec-01 22:30N 42°37' W 070°39'0 0.0
2017-Dec-01 22:00N 42°37' W 070°39'0 0.0
2017-Dec-01 21:30N 42°37' W 070°39'0 0.0
2017-Dec-01 21:00N 42°37' W 070°39'0 0.0
2017-Dec-01 20:30N 42°37' W 070°39'0 0.0
2017-Dec-01 20:00N 42°37' W 070°39'0 0.0
2017-Dec-01 19:30N 42°37' W 070°39'0 0.0
2017-Dec-01 19:00N 42°37' W 070°39'0 0.0
2017-Dec-01 18:30N 42°37' W 070°39'0 0.0
2017-Dec-01 18:00N 42°37' W 070°39'0 0.0
2017-Dec-01 17:30N 42°37' W 070°39'0 0.0
2017-Dec-01 17:00N 42°37' W 070°39'0 0.0
2017-Dec-01 16:30N 42°37' W 070°39'0 0.0
2017-Dec-01 16:00N 42°37' W 070°39'0 0.0
2017-Dec-01 15:30N 42°37' W 070°39'0 0.0
2017-Dec-01 15:00N 42°37' W 070°39'0 0.0
2017-Dec-01 14:30N 42°37' W 070°39'0 0.0
2017-Dec-01 14:00N 42°37' W 070°39'0 0.0
2017-Dec-01 13:30N 42°37' W 070°39'0 0.0
2017-Dec-01 13:00N 42°37' W 070°39'0 0.0
2017-Dec-01 12:30N 42°37' W 070°39'0 0.0
2017-Dec-01 12:00N 42°37' W 070°39'0 0.0
2017-Dec-01 11:30N 42°37' W 070°39'0 0.0
2017-Dec-01 11:00N 42°37' W 070°39'0 0.0
2017-Dec-01 10:30N 42°37' W 070°39'0 0.0
2017-Dec-01 10:00N 42°37' W 070°39'0 0.0
2017-Dec-01 09:30N 42°37' W 070°39'0 0.0
2017-Dec-01 09:00N 42°37' W 070°39'0 0.0
2017-Dec-01 08:30N 42°37' W 070°39'0 0.0
2017-Dec-01 08:00N 42°37' W 070°39'0 0.0
2017-Dec-01 07:30N 42°37' W 070°39'0 0.0
2017-Dec-01 07:00N 42°37' W 070°39'0 0.0
2017-Dec-01 06:30N 42°37' W 070°39'0 0.0
2017-Dec-01 06:00N 42°37' W 070°39'0 0.0
2017-Dec-01 05:30N 42°37' W 070°39'0 0.0
2017-Dec-01 05:00N 42°37' W 070°39'0 0.0
2017-Dec-01 04:30N 42°37' W 070°39'0 0.0
2017-Dec-01 04:00N 42°37' W 070°39'0 0.0
2017-Dec-01 03:30N 42°37' W 070°39'0 0.0
2017-Dec-01 03:00N 42°37' W 070°39'0 0.0
2017-Dec-01 02:30N 42°37' W 070°39'0 0.0
2017-Dec-01 02:00N 42°37' W 070°39'0 0.0
2017-Dec-01 01:30N 42°37' W 070°39'0 0.0
2017-Dec-01 01:00N 42°37' W 070°39'0 0.0
2017-Dec-01 00:30N 42°37' W 070°39'0 0.0
2017-Dec-01 00:00N 42°37' W 070°39'0 0.0
2017-Nov-30 23:30N 42°37' W 070°39'0 0.0
2017-Nov-30 23:00N 42°37' W 070°39'0 0.0
2017-Nov-30 22:30N 42°37' W 070°39'0 0.0
2017-Nov-30 22:00N 42°37' W 070°39'0 0.0
2017-Nov-30 21:30N 42°37' W 070°39'0 0.0
2017-Nov-30 21:00N 42°37' W 070°39'0 0.0
2017-Nov-30 20:30N 42°37' W 070°39'0 0.0
2017-Nov-30 20:00N 42°37' W 070°39'0 0.0
2017-Nov-30 19:30N 42°37' W 070°39'0 0.0
2017-Nov-30 19:00N 42°37' W 070°39'0 0.0
2017-Nov-30 18:30N 42°37' W 070°39'0 0.0
2017-Nov-30 18:00N 42°37' W 070°39'0 0.0
2017-Nov-30 17:30N 42°37' W 070°39'0 0.0
2017-Nov-30 17:00N 42°37' W 070°39'0 0.0
2017-Nov-30 16:30N 42°37' W 070°39'0 0.0
2017-Nov-30 16:00N 42°37' W 070°39'0 0.0
2017-Nov-30 15:30N 42°37' W 070°39'0 0.0
2017-Nov-30 15:00N 42°37' W 070°39'0 0.0
2017-Nov-30 14:30N 42°37' W 070°39'0 0.0
2017-Nov-30 14:00N 42°37' W 070°39'0 0.0
2017-Nov-30 13:30N 42°37' W 070°39'0 0.0
2017-Nov-30 13:00N 42°37' W 070°39'0 0.0
2017-Nov-30 09:10N 42°37' W 070°39'0 0.0
2017-Nov-30 09:00N 42°37' W 070°39'0 0.0
2017-Nov-30 08:30N 42°37' W 070°39'0 0.0
2017-Nov-30 08:00N 42°37' W 070°39'0 0.0
2017-Nov-30 07:30N 42°37' W 070°39'0 0.0
2017-Nov-30 07:00N 42°37' W 070°39'0 0.0
2017-Nov-30 06:30N 42°37' W 070°39'0 0.0
2017-Nov-30 06:00N 42°37' W 070°39'0 0.0
2017-Nov-30 05:30N 42°37' W 070°39'0 0.0
2017-Nov-30 05:00N 42°37' W 070°39'0 0.0
2017-Nov-30 04:30N 42°37' W 070°39'0 0.0
2017-Nov-30 04:00N 42°37' W 070°39'0 0.0
2017-Nov-30 03:30N 42°37' W 070°39'0 0.0
2017-Nov-30 03:00N 42°37' W 070°39'0 0.0
2017-Nov-30 02:30N 42°37' W 070°39'0 0.0
2017-Nov-30 02:00N 42°37' W 070°39'0 0.0
2017-Nov-30 01:30N 42°37' W 070°39'0 0.0
2017-Nov-30 01:00N 42°37' W 070°39'0 0.0
2017-Nov-30 00:30N 42°37' W 070°39'0 0.0
2017-Nov-30 00:00N 42°37' W 070°39'0 0.0
2017-Nov-29 23:30N 42°37' W 070°39'0 0.0
2017-Nov-29 23:00N 42°37' W 070°39'0 0.0
2017-Nov-29 22:30N 42°37' W 070°39'0 0.0
2017-Nov-29 22:00N 42°37' W 070°39'0 0.0
2017-Nov-29 21:30N 42°37' W 070°39'0 0.0
2017-Nov-29 21:00N 42°37' W 070°39'0 0.1
2017-Nov-29 20:30N 42°37' W 070°39'0 1.0
2017-Nov-29 20:00N 42°37' W 070°40'0 0.0
2017-Nov-29 19:30N 42°37' W 070°40'0 0.0
2017-Nov-29 19:00N 42°37' W 070°40'0 0.0
2017-Nov-29 18:30N 42°37' W 070°40'0 0.0
2017-Nov-29 18:00N 42°37' W 070°40'0 0.0
2017-Nov-29 17:30N 42°37' W 070°40'0 0.0
2017-Nov-29 17:00N 42°37' W 070°40'0 0.0
2017-Nov-29 16:30N 42°37' W 070°40'0 0.0
2017-Nov-29 16:00N 42°37' W 070°40'0 0.0
2017-Nov-29 15:30N 42°37' W 070°40'0 0.0
2017-Nov-29 15:00N 42°37' W 070°40'0 0.0
2017-Nov-29 14:30N 42°37' W 070°40'0 0.0
2017-Nov-29 14:00N 42°37' W 070°40'0 0.1
2017-Nov-29 13:30N 42°37' W 070°40'0 0.9
2017-Nov-29 13:00N 42°37' W 070°39'0 0.0
2017-Nov-29 12:30N 42°37' W 070°39'0 0.0
2017-Nov-29 12:00N 42°37' W 070°39'0 0.0
2017-Nov-29 11:30N 42°37' W 070°39'0 0.0
2017-Nov-29 11:00N 42°37' W 070°39'0 0.0
2017-Nov-29 10:30N 42°37' W 070°39'0 0.0
2017-Nov-29 10:00N 42°37' W 070°39'0 0.0
2017-Nov-29 09:30N 42°37' W 070°39'0 0.0
2017-Nov-29 09:00N 42°37' W 070°39'0 0.0
2017-Nov-29 08:30N 42°37' W 070°39'0 0.0
2017-Nov-29 08:00N 42°37' W 070°39'0 0.0
2017-Nov-29 07:30N 42°37' W 070°39'0 0.0
2017-Nov-29 07:00N 42°37' W 070°39'0 0.0
2017-Nov-29 06:30N 42°37' W 070°39'0 1.0
2017-Nov-29 06:00N 42°36' W 070°40'3 5.2
2017-Nov-29 05:30N 42°34' W 070°39'4 7.5
2017-Nov-29 05:00N 42°33' W 070°34'4 7.9
2017-Nov-29 04:30N 42°31' W 070°29'4 7.7
2017-Nov-29 04:00N 42°30' W 070°24'4 7.7
2017-Nov-29 03:30N 42°29' W 070°19'  
Track history (hours):
 
Tides and Currents Weather Stations Pressure Air Temp Water Temp Dewpoint Dewpoint Depression Visibility Wind Speed Wind Dir Waves Ship Positions

Tyler

Owner: F/V Tyler Inc, Gloucester, MA. More information available from US FCC via Universal Licensing System and Coast Guard Vessel Documentation Center.

Last reported at 2017-Dec-07 09:00 UTC. Time now 2017-Dec-12 12:28 UTC.
Position N 42°30' W 070°13'.

Length 20 m; draft 14 m.

Type: Ship. MMSI: 367602610.

Date/timePositionNaut miles runAvg speedWind from/ knotsBaromVisibWave heightAir tempDewpointWater temp
2017-Dec-07 09:00N 42°30' W 070°13'4 9.0
2017-Dec-07 08:30N 42°31' W 070°19'4 8.8
2017-Dec-07 08:00N 42°32' W 070°25'4 8.9
2017-Dec-07 07:30N 42°33' W 070°31'4 8.8
2017-Dec-07 07:00N 42°34' W 070°37'3 6.7
2017-Dec-07 06:30N 42°36' W 070°40'1 1.9
2017-Dec-07 06:00N 42°37' W 070°40'0 0.0
2017-Dec-07 05:30N 42°37' W 070°40'3 5.9
2017-Dec-07 05:00N 42°34' W 070°40'4 8.7
2017-Dec-07 04:30N 42°32' W 070°35'4 9.0
2017-Dec-07 04:00N 42°32' W 070°29'5 8.8
2017-Dec-07 03:29N 42°31' W 070°23'7 4.9
2017-Dec-07 02:00N 42°31' W 070°13'4 8.3
2017-Dec-07 01:30N 42°31' W 070°18'4 7.6
2017-Dec-07 01:00N 42°32' W 070°23'4 7.7
2017-Dec-07 00:30N 42°33' W 070°28'4 7.9
2017-Dec-07 00:00N 42°33' W 070°34'4 8.1
2017-Dec-06 23:30N 42°34' W 070°39'2 4.5
2017-Dec-06 23:00N 42°36' W 070°40'1 2.7
2017-Dec-06 22:30N 42°37' W 070°39'0 0.0
2017-Dec-06 22:00N 42°37' W 070°39'0 0.0
2017-Dec-06 21:30N 42°37' W 070°39'0 0.0
2017-Dec-06 21:00N 42°37' W 070°39'  
2017-Dec-04 10:30N 42°37' W 070°39'0 0.0
2017-Dec-04 10:00N 42°37' W 070°39'0 0.0
2017-Dec-04 09:30N 42°37' W 070°39'0 0.0
2017-Dec-04 09:00N 42°37' W 070°39'0 0.0
2017-Dec-04 08:30N 42°37' W 070°39'0 0.0
2017-Dec-04 08:00N 42°37' W 070°39'0 0.0
2017-Dec-04 07:30N 42°37' W 070°39'0 0.0
2017-Dec-04 07:00N 42°37' W 070°39'0 0.0
2017-Dec-04 06:30N 42°37' W 070°39'0 0.0
2017-Dec-04 06:00N 42°37' W 070°39'0 0.0
2017-Dec-04 05:30N 42°37' W 070°39'0 0.0
2017-Dec-04 05:00N 42°37' W 070°39'0 0.0
2017-Dec-04 04:30N 42°37' W 070°39'0 0.0
2017-Dec-04 04:00N 42°37' W 070°39'0 0.0
2017-Dec-04 03:30N 42°37' W 070°39'0 0.0
2017-Dec-04 03:00N 42°37' W 070°39'0 0.0
2017-Dec-04 02:30N 42°37' W 070°39'0 0.0
2017-Dec-04 02:00N 42°37' W 070°39'0 0.0
2017-Dec-04 01:30N 42°37' W 070°39'0 0.0
2017-Dec-04 01:00N 42°37' W 070°39'0 0.0
2017-Dec-04 00:30N 42°37' W 070°39'0 0.0
2017-Dec-04 00:00N 42°37' W 070°39'0 0.0
2017-Dec-03 23:30N 42°37' W 070°39'0 0.0
2017-Dec-03 23:00N 42°37' W 070°39'0 0.0
2017-Dec-03 22:30N 42°37' W 070°39'0 0.0
2017-Dec-03 22:00N 42°37' W 070°39'0 0.0
2017-Dec-03 21:30N 42°37' W 070°39'0 0.0
2017-Dec-03 21:00N 42°37' W 070°39'0 0.0
2017-Dec-03 20:30N 42°37' W 070°39'0 0.0
2017-Dec-03 20:00N 42°37' W 070°39'0 0.0
2017-Dec-03 19:30N 42°37' W 070°39'0 0.0
2017-Dec-03 19:00N 42°37' W 070°39'0 0.0
2017-Dec-03 18:30N 42°37' W 070°39'0 0.0
2017-Dec-03 18:00N 42°37' W 070°39'0 0.0
2017-Dec-03 17:30N 42°37' W 070°39'0 0.0
2017-Dec-03 17:00N 42°37' W 070°39'0 0.0
2017-Dec-03 16:30N 42°37' W 070°39'0 0.0
2017-Dec-03 16:00N 42°37' W 070°39'0 0.0
2017-Dec-03 15:30N 42°37' W 070°39'0 0.0
2017-Dec-03 15:00N 42°37' W 070°39'0 0.0
2017-Dec-03 14:30N 42°37' W 070°39'0 0.0
2017-Dec-03 14:00N 42°37' W 070°39'0 0.0
2017-Dec-03 13:30N 42°37' W 070°39'0 0.0
2017-Dec-03 13:00N 42°37' W 070°39'0 0.0
2017-Dec-03 12:31N 42°37' W 070°39'0 0.0
2017-Dec-03 12:00N 42°37' W 070°39'0 0.0
2017-Dec-03 11:30N 42°37' W 070°39'0 0.0
2017-Dec-03 11:00N 42°37' W 070°39'0 0.0
2017-Dec-03 10:30N 42°37' W 070°39'0 0.0
2017-Dec-03 10:00N 42°37' W 070°39'0 0.0
2017-Dec-03 09:30N 42°37' W 070°39'0 0.0
2017-Dec-03 09:00N 42°37' W 070°39'0 0.0
2017-Dec-03 08:30N 42°37' W 070°39'0 0.0
2017-Dec-03 08:00N 42°37' W 070°39'0 0.0
2017-Dec-03 07:30N 42°37' W 070°39'0 0.0
2017-Dec-03 07:00N 42°37' W 070°39'0 0.0
2017-Dec-03 06:30N 42°37' W 070°39'0 0.0
2017-Dec-03 06:00N 42°37' W 070°39'0 0.0
2017-Dec-03 05:30N 42°37' W 070°39'0 0.0
2017-Dec-03 05:00N 42°37' W 070°39'0 0.0
2017-Dec-03 04:30N 42°37' W 070°39'0 0.0
2017-Dec-03 04:00N 42°37' W 070°39'0 0.0
2017-Dec-03 03:30N 42°37' W 070°39'0 0.0
2017-Dec-03 03:00N 42°37' W 070°39'0 0.0
2017-Dec-03 02:30N 42°37' W 070°39'0 0.0
2017-Dec-03 02:00N 42°37' W 070°39'0 0.0
2017-Dec-03 01:30N 42°37' W 070°39'0 0.0
2017-Dec-03 01:00N 42°37' W 070°39'0 0.0
2017-Dec-03 00:30N 42°37' W 070°39'0 0.0
2017-Dec-03 00:00N 42°37' W 070°39'0 0.0
2017-Dec-02 23:30N 42°37' W 070°39'0 0.0
2017-Dec-02 23:00N 42°37' W 070°39'0 0.0
2017-Dec-02 22:31N 42°37' W 070°39'0 0.0
2017-Dec-02 22:00N 42°37' W 070°39'0 0.0
2017-Dec-02 21:30N 42°37' W 070°39'0 0.0
2017-Dec-02 21:00N 42°37' W 070°39'0 0.0
2017-Dec-02 20:30N 42°37' W 070°39'0 0.0
2017-Dec-02 20:00N 42°37' W 070°39'0 0.0
2017-Dec-02 19:30N 42°37' W 070°39'0 0.0
2017-Dec-02 19:00N 42°37' W 070°39'0 0.0
2017-Dec-02 18:30N 42°37' W 070°39'0 0.0
2017-Dec-02 18:00N 42°37' W 070°39'0 0.0
2017-Dec-02 17:30N 42°37' W 070°39'0 0.0
2017-Dec-02 17:00N 42°37' W 070°39'0 0.0
2017-Dec-02 16:30N 42°37' W 070°39'0 0.0
2017-Dec-02 16:00N 42°37' W 070°39'0 0.0
2017-Dec-02 15:30N 42°37' W 070°39'0 0.0
2017-Dec-02 15:00N 42°37' W 070°39'0 0.0
2017-Dec-02 14:31N 42°37' W 070°39'0 0.0
2017-Dec-02 14:00N 42°37' W 070°39'0 0.0
2017-Dec-02 13:30N 42°37' W 070°39'0 0.0
2017-Dec-02 13:00N 42°37' W 070°39'0 0.0
2017-Dec-02 12:30N 42°37' W 070°39'0 0.0
2017-Dec-02 12:00N 42°37' W 070°39'0 0.0
2017-Dec-02 11:30N 42°37' W 070°39'0 0.0
2017-Dec-02 11:00N 42°37' W 070°39'0 0.0
2017-Dec-02 10:30N 42°37' W 070°39'0 0.0
2017-Dec-02 10:00N 42°37' W 070°39'0 0.0
2017-Dec-02 09:30N 42°37' W 070°39'0 0.0
2017-Dec-02 09:00N 42°37' W 070°39'0 0.0
2017-Dec-02 08:30N 42°37' W 070°39'0 0.0
2017-Dec-02 08:00N 42°37' W 070°39'0 0.0
2017-Dec-02 07:30N 42°37' W 070°39'0 0.0
2017-Dec-02 07:00N 42°37' W 070°39'0 0.0
2017-Dec-02 06:30N 42°37' W 070°39'0 0.0
2017-Dec-02 06:00N 42°37' W 070°39'0 0.0
2017-Dec-02 05:30N 42°37' W 070°39'0 0.0
2017-Dec-02 05:00N 42°37' W 070°39'0 0.0
2017-Dec-02 04:30N 42°37' W 070°39'0 0.0
2017-Dec-02 04:00N 42°37' W 070°39'0 0.0
2017-Dec-02 03:30N 42°37' W 070°39'0 0.0
2017-Dec-02 03:00N 42°37' W 070°39'0 0.0
2017-Dec-02 02:30N 42°37' W 070°39'0 0.0
2017-Dec-02 02:00N 42°37' W 070°39'0 0.0
2017-Dec-02 01:30N 42°37' W 070°39'0 0.0
2017-Dec-02 01:00N 42°37' W 070°39'0 0.0
2017-Dec-02 00:30N 42°37' W 070°39'0 0.0
2017-Dec-02 00:00N 42°37' W 070°39'0 0.0
2017-Dec-01 23:30N 42°37' W 070°39'0 0.0
2017-Dec-01 23:00N 42°37' W 070°39'0 0.0
2017-Dec-01 22:30N 42°37' W 070°39'0 0.0
2017-Dec-01 22:00N 42°37' W 070°39'0 0.0
2017-Dec-01 21:30N 42°37' W 070°39'0 0.0
2017-Dec-01 21:00N 42°37' W 070°39'0 0.0
2017-Dec-01 20:30N 42°37' W 070°39'0 0.0
2017-Dec-01 20:00N 42°37' W 070°39'0 0.0
2017-Dec-01 19:30N 42°37' W 070°39'0 0.0
2017-Dec-01 19:00N 42°37' W 070°39'0 0.0
2017-Dec-01 18:30N 42°37' W 070°39'0 0.0
2017-Dec-01 18:00N 42°37' W 070°39'0 0.0
2017-Dec-01 17:30N 42°37' W 070°39'0 0.0
2017-Dec-01 17:00N 42°37' W 070°39'0 0.0
2017-Dec-01 16:30N 42°37' W 070°39'0 0.0
2017-Dec-01 16:00N 42°37' W 070°39'0 0.0
2017-Dec-01 15:30N 42°37' W 070°39'0 0.0
2017-Dec-01 15:00N 42°37' W 070°39'0 0.0
2017-Dec-01 14:30N 42°37' W 070°39'0 0.0
2017-Dec-01 14:00N 42°37' W 070°39'0 0.0
2017-Dec-01 13:30N 42°37' W 070°39'0 0.0
2017-Dec-01 13:00N 42°37' W 070°39'0 0.0
2017-Dec-01 12:30N 42°37' W 070°39'0 0.0
2017-Dec-01 12:00N 42°37' W 070°39'0 0.0
2017-Dec-01 11:30N 42°37' W 070°39'0 0.0
2017-Dec-01 11:00N 42°37' W 070°39'0 0.0
2017-Dec-01 10:30N 42°37' W 070°39'0 0.0
2017-Dec-01 10:00N 42°37' W 070°39'0 0.0
2017-Dec-01 09:30N 42°37' W 070°39'0 0.0
2017-Dec-01 09:00N 42°37' W 070°39'0 0.0
2017-Dec-01 08:30N 42°37' W 070°39'0 0.0
2017-Dec-01 08:00N 42°37' W 070°39'0 0.0
2017-Dec-01 07:30N 42°37' W 070°39'0 0.0
2017-Dec-01 07:00N 42°37' W 070°39'0 0.0
2017-Dec-01 06:30N 42°37' W 070°39'0 0.0
2017-Dec-01 06:00N 42°37' W 070°39'0 0.0
2017-Dec-01 05:30N 42°37' W 070°39'0 0.0
2017-Dec-01 05:00N 42°37' W 070°39'0 0.0
2017-Dec-01 04:30N 42°37' W 070°39'0 0.0
2017-Dec-01 04:00N 42°37' W 070°39'0 0.0
2017-Dec-01 03:30N 42°37' W 070°39'0 0.0
2017-Dec-01 03:00N 42°37' W 070°39'0 0.0
2017-Dec-01 02:30N 42°37' W 070°39'0 0.0
2017-Dec-01 02:00N 42°37' W 070°39'0 0.0
2017-Dec-01 01:30N 42°37' W 070°39'0 0.0
2017-Dec-01 01:00N 42°37' W 070°39'0 0.0
2017-Dec-01 00:30N 42°37' W 070°39'0 0.0
2017-Dec-01 00:00N 42°37' W 070°39'0 0.0
2017-Nov-30 23:30N 42°37' W 070°39'0 0.0
2017-Nov-30 23:00N 42°37' W 070°39'0 0.0
2017-Nov-30 22:30N 42°37' W 070°39'0 0.0
2017-Nov-30 22:00N 42°37' W 070°39'0 0.0
2017-Nov-30 21:30N 42°37' W 070°39'0 0.0
2017-Nov-30 21:00N 42°37' W 070°39'0 0.0
2017-Nov-30 20:30N 42°37' W 070°39'0 0.0
2017-Nov-30 20:00N 42°37' W 070°39'0 0.0
2017-Nov-30 19:30N 42°37' W 070°39'0 0.0
2017-Nov-30 19:00N 42°37' W 070°39'0 0.0
2017-Nov-30 18:30N 42°37' W 070°39'0 0.0
2017-Nov-30 18:00N 42°37' W 070°39'0 0.0
2017-Nov-30 17:30N 42°37' W 070°39'0 0.0
2017-Nov-30 17:00N 42°37' W 070°39'0 0.0
2017-Nov-30 16:30N 42°37' W 070°39'0 0.0
2017-Nov-30 16:00N 42°37' W 070°39'0 0.0
2017-Nov-30 15:30N 42°37' W 070°39'0 0.0
2017-Nov-30 15:00N 42°37' W 070°39'0 0.0
2017-Nov-30 14:30N 42°37' W 070°39'0 0.0
2017-Nov-30 14:00N 42°37' W 070°39'0 0.0
2017-Nov-30 13:30N 42°37' W 070°39'0 0.0
2017-Nov-30 13:00N 42°37' W 070°39'0 0.0
2017-Nov-30 09:10N 42°37' W 070°39'0 0.0
2017-Nov-30 09:00N 42°37' W 070°39'0 0.0
2017-Nov-30 08:30N 42°37' W 070°39'0 0.0
2017-Nov-30 08:00N 42°37' W 070°39'0 0.0
2017-Nov-30 07:30N 42°37' W 070°39'0 0.0
2017-Nov-30 07:00N 42°37' W 070°39'0 0.0
2017-Nov-30 06:30N 42°37' W 070°39'0 0.0
2017-Nov-30 06:00N 42°37' W 070°39'0 0.0
2017-Nov-30 05:30N 42°37' W 070°39'0 0.0
2017-Nov-30 05:00N 42°37' W 070°39'0 0.0
2017-Nov-30 04:30N 42°37' W 070°39'0 0.0
2017-Nov-30 04:00N 42°37' W 070°39'0 0.0
2017-Nov-30 03:30N 42°37' W 070°39'0 0.0
2017-Nov-30 03:00N 42°37' W 070°39'0 0.0
2017-Nov-30 02:30N 42°37' W 070°39'0 0.0
2017-Nov-30 02:00N 42°37' W 070°39'0 0.0
2017-Nov-30 01:30N 42°37' W 070°39'0 0.0
2017-Nov-30 01:00N 42°37' W 070°39'0 0.0
2017-Nov-30 00:30N 42°37' W 070°39'0 0.0
2017-Nov-30 00:00N 42°37' W 070°39'0 0.0
2017-Nov-29 23:30N 42°37' W 070°39'0 0.0
2017-Nov-29 23:00N 42°37' W 070°39'0 0.0
2017-Nov-29 22:30N 42°37' W 070°39'0 0.0
2017-Nov-29 22:00N 42°37' W 070°39'0 0.0
2017-Nov-29 21:30N 42°37' W 070°39'0 0.0
2017-Nov-29 21:00N 42°37' W 070°39'0 0.1
2017-Nov-29 20:30N 42°37' W 070°39'0 1.0
2017-Nov-29 20:00N 42°37' W 070°40'0 0.0
2017-Nov-29 19:30N 42°37' W 070°40'0 0.0
2017-Nov-29 19:00N 42°37' W 070°40'0 0.0
2017-Nov-29 18:30N 42°37' W 070°40'0 0.0
2017-Nov-29 18:00N 42°37' W 070°40'0 0.0
2017-Nov-29 17:30N 42°37' W 070°40'0 0.0
2017-Nov-29 17:00N 42°37' W 070°40'0 0.0
2017-Nov-29 16:30N 42°37' W 070°40'0 0.0
2017-Nov-29 16:00N 42°37' W 070°40'0 0.0
2017-Nov-29 15:30N 42°37' W 070°40'0 0.0
2017-Nov-29 15:00N 42°37' W 070°40'0 0.0
2017-Nov-29 14:30N 42°37' W 070°40'0 0.0
2017-Nov-29 14:00N 42°37' W 070°40'0 0.1
2017-Nov-29 13:30N 42°37' W 070°40'0 0.9
2017-Nov-29 13:00N 42°37' W 070°39'0 0.0
2017-Nov-29 12:30N 42°37' W 070°39'0 0.0
2017-Nov-29 12:00N 42°37' W 070°39'0 0.0
2017-Nov-29 11:30N 42°37' W 070°39'0 0.0
2017-Nov-29 11:00N 42°37' W 070°39'0 0.0
2017-Nov-29 10:30N 42°37' W 070°39'0 0.0
2017-Nov-29 10:00N 42°37' W 070°39'0 0.0
2017-Nov-29 09:30N 42°37' W 070°39'0 0.0
2017-Nov-29 09:00N 42°37' W 070°39'0 0.0
2017-Nov-29 08:30N 42°37' W 070°39'0 0.0
2017-Nov-29 08:00N 42°37' W 070°39'0 0.0
2017-Nov-29 07:30N 42°37' W 070°39'0 0.0
2017-Nov-29 07:00N 42°37' W 070°39'0 0.0
2017-Nov-29 06:30N 42°37' W 070°39'0 1.0
2017-Nov-29 06:00N 42°36' W 070°40'3 5.2
2017-Nov-29 05:30N 42°34' W 070°39'4 7.5
2017-Nov-29 05:00N 42°33' W 070°34'4 7.9
2017-Nov-29 04:30N 42°31' W 070°29'4 7.7
2017-Nov-29 04:00N 42°30' W 070°24'4 7.7
2017-Nov-29 03:30N 42°29' W 070°19'  

Dump ship's entire track history